createdAt,value
2022-10-16T00:01:45.941Z,75.11
2022-10-16T00:04:14.085Z,74.52
2022-10-16T00:06:41.943Z,74.87
2022-10-16T00:09:10.544Z,75.12
2022-10-16T00:11:43.641Z,75.86
2022-10-16T00:14:14.443Z,76.03
2022-10-16T00:16:45.650Z,76.53
2022-10-16T00:19:13.724Z,77.29
2022-10-16T00:21:41.411Z,77.81
2022-10-16T00:24:11.061Z,76.55
2022-10-16T00:26:40.405Z,76.18
2022-10-16T00:29:08.653Z,75.17
2022-10-16T00:31:37.162Z,74.28
2022-10-16T00:34:06.446Z,74.91
2022-10-16T00:36:34.152Z,74.74
2022-10-16T00:39:02.829Z,74.53
2022-10-16T00:41:31.769Z,74.07
2022-10-16T00:44:00.914Z,74.14
2022-10-16T00:46:32.009Z,74.70
2022-10-16T00:49:03.625Z,74.47
2022-10-16T00:51:36.615Z,74.66
2022-10-16T00:54:08.186Z,74.75
2022-10-16T00:56:36.142Z,75.00
2022-10-16T00:59:08.573Z,74.50
2022-10-16T01:01:36.542Z,74.30
2022-10-16T01:04:04.403Z,74.93
2022-10-16T01:06:40.415Z,74.54
2022-10-16T01:09:18.584Z,74.61
2022-10-16T01:12:00.677Z,75.06
2022-10-16T01:14:36.272Z,75.52
2022-10-16T01:17:12.083Z,75.70
2022-10-16T01:19:52.492Z,75.45
2022-10-16T01:22:25.688Z,75.41
2022-10-16T01:24:57.331Z,75.60
2022-10-16T01:27:29.483Z,75.91
2022-10-16T01:30:04.783Z,75.87
2022-10-16T01:32:38.627Z,75.77
2022-10-16T01:35:12.518Z,76.01
2022-10-16T01:37:43.721Z,75.63
2022-10-16T01:40:14.635Z,76.05
2022-10-16T01:42:49.300Z,76.05
2022-10-16T01:45:20.850Z,75.77
2022-10-16T01:47:50.396Z,75.73
2022-10-16T01:50:20.976Z,76.02
2022-10-16T01:52:53.439Z,75.44
2022-10-16T01:55:34.062Z,76.07
2022-10-16T01:58:05.725Z,76.55
2022-10-16T02:00:33.509Z,75.54
2022-10-16T02:03:05.632Z,74.57
2022-10-16T02:05:36.271Z,74.87
2022-10-16T02:08:05.633Z,74.68
2022-10-16T02:10:34.139Z,75.11
2022-10-16T02:13:08.070Z,75.16
2022-10-16T02:15:35.750Z,74.80
2022-10-16T02:18:04.401Z,74.56
2022-10-16T02:20:36.545Z,74.87
2022-10-16T02:23:05.508Z,75.46
2022-10-16T02:25:36.863Z,74.35
2022-10-16T02:28:10.589Z,74.24
2022-10-16T02:30:42.935Z,74.42
2022-10-16T02:33:14.566Z,73.63
2022-10-16T02:35:44.165Z,73.90
2022-10-16T02:38:13.505Z,73.96
2022-10-16T02:40:41.329Z,74.42
2022-10-16T02:43:11.619Z,74.69
2022-10-16T02:45:39.389Z,75.21
2022-10-16T02:48:07.528Z,75.78
2022-10-16T02:50:35.214Z,75.86
2022-10-16T02:53:02.913Z,74.48
2022-10-16T02:55:30.514Z,74.94
2022-10-16T02:57:58.190Z,74.70
2022-10-16T03:00:27.374Z,74.94
2022-10-16T03:02:55.164Z,74.11
2022-10-16T03:07:55.386Z,74.10
2022-10-16T03:10:23.173Z,74.72
2022-10-16T03:12:50.785Z,74.61
2022-10-16T03:15:18.438Z,74.99
2022-10-16T03:17:47.432Z,74.80
2022-10-16T03:20:15.333Z,75.03
2022-10-16T03:22:42.960Z,75.14
2022-10-16T03:25:10.638Z,74.34
2022-10-16T03:27:38.280Z,73.27
2022-10-16T03:30:06.609Z,73.33
2022-10-16T03:35:09.886Z,74.12
2022-10-16T03:37:37.761Z,75.01
2022-10-16T03:40:06.116Z,75.41
2022-10-16T03:42:34.099Z,74.16
2022-10-16T03:45:01.673Z,74.49
2022-10-16T03:47:29.382Z,73.03
2022-10-16T03:49:57.207Z,73.02
2022-10-16T03:52:26.286Z,73.79
2022-10-16T03:54:53.982Z,74.38
2022-10-16T03:57:21.610Z,75.43
2022-10-16T03:59:49.265Z,75.46
2022-10-16T04:02:16.843Z,74.85
2022-10-16T04:04:44.469Z,74.80
2022-10-16T04:07:12.031Z,74.51
2022-10-16T04:09:40.998Z,74.20
2022-10-16T04:12:08.985Z,74.12
2022-10-16T04:14:36.633Z,74.99
2022-10-16T04:17:04.179Z,74.98
2022-10-16T04:19:31.761Z,75.63
2022-10-16T04:21:59.370Z,74.93
2022-10-16T04:24:26.942Z,75.36
2022-10-16T04:26:55.946Z,74.25
2022-10-16T04:29:23.539Z,73.32
2022-10-16T04:31:51.142Z,73.10
2022-10-16T04:34:18.738Z,73.54
2022-10-16T04:36:48.636Z,72.84
2022-10-16T04:39:16.250Z,72.36
2022-10-16T04:41:44.069Z,71.88
2022-10-16T04:44:13.026Z,71.82
2022-10-16T04:46:40.605Z,72.61
2022-10-16T04:49:08.563Z,72.74
2022-10-16T04:51:36.156Z,73.23
2022-10-16T04:54:03.812Z,73.17
2022-10-16T04:56:31.868Z,73.23
2022-10-16T04:58:59.494Z,72.43
2022-10-16T05:01:28.448Z,72.62
2022-10-16T05:03:55.982Z,72.31
2022-10-16T05:06:23.627Z,71.95
2022-10-16T05:08:51.225Z,72.44
2022-10-16T05:11:18.970Z,72.30
2022-10-16T05:13:46.866Z,72.53
2022-10-16T05:16:14.489Z,72.94
2022-10-16T05:18:43.522Z,72.92
2022-10-16T05:21:11.166Z,73.69
2022-10-16T05:23:38.873Z,73.30
2022-10-16T05:26:06.645Z,73.42
2022-10-16T05:28:34.343Z,74.34
2022-10-16T05:31:06.445Z,73.07
2022-10-16T05:33:34.134Z,72.47
2022-10-16T05:36:04.981Z,73.15
2022-10-16T05:38:32.582Z,74.13
2022-10-16T05:41:00.277Z,74.67
2022-10-16T05:43:31.072Z,74.77
2022-10-16T05:45:59.957Z,75.07
2022-10-16T05:48:28.125Z,75.24
2022-10-16T05:51:00.756Z,75.27
2022-10-16T05:53:31.999Z,75.30
2022-10-16T05:56:00.300Z,75.54
2022-10-16T05:58:32.718Z,75.74
2022-10-16T06:01:02.521Z,75.76
2022-10-16T06:03:30.175Z,74.29
2022-10-16T06:05:57.835Z,74.57
2022-10-16T06:08:25.678Z,74.36
2022-10-16T06:11:04.646Z,73.98
2022-10-16T06:13:32.240Z,72.33
2022-10-16T06:16:01.429Z,72.18
2022-10-16T06:18:30.067Z,72.66
2022-10-16T06:20:58.549Z,73.36
2022-10-16T06:23:26.950Z,73.54
2022-10-16T06:25:58.924Z,74.26
2022-10-16T06:28:30.841Z,74.24
2022-10-16T06:31:08.739Z,74.34
2022-10-16T06:33:41.048Z,73.80
2022-10-16T06:36:12.660Z,74.22
2022-10-16T06:38:40.780Z,74.88
2022-10-16T06:41:11.322Z,74.90
2022-10-16T06:43:42.322Z,75.14
2022-10-16T06:46:12.794Z,75.84
2022-10-16T06:48:42.480Z,75.56
2022-10-16T06:51:14.629Z,75.39
2022-10-16T06:54:01.458Z,74.52
2022-10-16T06:56:30.995Z,74.46
2022-10-16T06:59:00.505Z,74.35
2022-10-16T07:01:28.943Z,74.18
2022-10-16T07:03:56.613Z,74.74
2022-10-16T07:06:26.425Z,75.01
2022-10-16T07:08:54.208Z,74.63
2022-10-16T07:11:23.673Z,72.25
2022-10-16T07:13:54.811Z,71.24
2022-10-16T07:16:27.633Z,70.94
2022-10-16T07:18:59.746Z,71.37
2022-10-16T07:21:29.830Z,71.58
2022-10-16T07:23:59.223Z,72.69
2022-10-16T07:26:27.924Z,71.97
2022-10-16T07:28:55.799Z,71.75
2022-10-16T07:31:25.066Z,72.25
2022-10-16T07:33:53.407Z,72.58
2022-10-16T07:36:23.187Z,72.80
2022-10-16T07:38:52.896Z,71.28
2022-10-16T07:41:23.238Z,71.04
2022-10-16T07:43:52.627Z,70.84
2022-10-16T07:46:20.923Z,71.28
2022-10-16T07:48:50.194Z,71.46
2022-10-16T07:51:19.284Z,71.13
2022-10-16T07:53:47.739Z,70.72
2022-10-16T07:56:15.825Z,70.31
2022-10-16T07:58:43.403Z,70.31
2022-10-16T08:01:13.019Z,70.65
2022-10-16T08:03:41.104Z,69.91
2022-10-16T08:06:10.125Z,69.23
2022-10-16T08:08:39.699Z,68.88
2022-10-16T08:11:07.462Z,68.98
2022-10-16T08:13:39.414Z,68.51
2022-10-16T08:16:09.128Z,67.67
2022-10-16T08:18:37.573Z,67.68
2022-10-16T08:21:06.428Z,67.30
2022-10-16T08:23:36.279Z,66.97
2022-10-16T08:26:12.420Z,66.61
2022-10-16T08:28:40.160Z,66.37
2022-10-16T08:31:27.582Z,68.54
2022-10-16T08:37:03.057Z,68.60
2022-10-16T08:39:32.073Z,68.25
2022-10-16T08:42:16.624Z,67.92
2022-10-16T08:45:16.584Z,66.35
2022-10-16T08:47:51.552Z,64.33
2022-10-16T08:50:26.056Z,64.01
2022-10-16T08:52:54.042Z,63.10
2022-10-16T08:55:34.325Z,61.97
2022-10-16T08:58:02.407Z,61.90
2022-10-16T09:00:31.372Z,61.01
2022-10-16T09:03:13.022Z,60.49
2022-10-16T09:05:53.572Z,60.48
2022-10-16T09:08:28.140Z,60.49
2022-10-16T09:11:02.028Z,60.53
2022-10-16T09:13:37.682Z,60.90
2022-10-16T09:16:18.710Z,61.04
2022-10-16T09:18:53.975Z,60.82
2022-10-16T09:21:26.663Z,61.10
2022-10-16T09:23:59.125Z,60.81
2022-10-16T09:26:28.145Z,61.10
2022-10-16T09:28:55.883Z,61.13
2022-10-16T09:31:24.797Z,60.88
2022-10-16T09:33:56.949Z,60.36
2022-10-16T09:36:30.702Z,59.83
2022-10-16T09:39:07.182Z,59.22
2022-10-16T09:41:39.818Z,58.89
2022-10-16T09:44:21.389Z,59.71
2022-10-16T09:46:49.050Z,59.66
2022-10-16T09:49:25.295Z,59.39
2022-10-16T09:52:04.595Z,59.02
2022-10-16T09:54:32.257Z,57.39
2022-10-16T09:57:09.398Z,56.53
2022-10-16T09:59:48.359Z,56.74
2022-10-16T10:02:17.956Z,56.02
2022-10-16T10:04:52.342Z,56.24
2022-10-16T10:07:25.733Z,56.05
2022-10-16T10:10:00.335Z,55.97
2022-10-16T10:12:36.728Z,55.98
2022-10-16T10:15:08.484Z,56.39
2022-10-16T10:17:36.186Z,56.67
2022-10-16T10:20:23.640Z,57.23
2022-10-16T10:22:51.288Z,56.29
2022-10-16T10:25:34.938Z,56.54
2022-10-16T10:28:18.712Z,54.82
2022-10-16T10:30:55.723Z,54.95
2022-10-16T10:33:33.135Z,55.47
2022-10-16T10:36:11.702Z,54.90
2022-10-16T10:38:49.268Z,55.30
2022-10-16T10:41:55.574Z,55.95
2022-10-16T10:44:39.461Z,55.39
2022-10-16T10:47:20.671Z,54.13
2022-10-16T10:49:59.787Z,53.86
2022-10-16T10:52:43.730Z,54.20
2022-10-16T10:55:21.403Z,53.81
2022-10-16T10:58:02.842Z,54.14
2022-10-16T11:00:42.461Z,52.56
2022-10-16T11:03:20.402Z,53.37
2022-10-16T11:05:52.080Z,53.82
2022-10-16T11:08:22.946Z,53.39
2022-10-16T11:10:57.735Z,53.43
2022-10-16T11:13:40.227Z,47.83
2022-10-16T11:16:20.617Z,47.46
2022-10-16T11:18:54.091Z,46.58
2022-10-16T11:21:28.813Z,47.73
2022-10-16T11:24:04.328Z,46.60
2022-10-16T11:26:36.693Z,47.14
2022-10-16T11:29:10.821Z,47.95
2022-10-16T11:31:43.465Z,48.33
2022-10-16T11:34:19.703Z,48.55
2022-10-16T11:36:52.081Z,48.03
2022-10-16T11:39:23.239Z,48.59
2022-10-16T11:41:53.603Z,48.47
2022-10-16T11:44:48.542Z,47.53
2022-10-16T11:47:54.127Z,46.68
2022-10-16T11:50:22.563Z,45.60
2022-10-16T11:52:57.588Z,43.67
2022-10-16T11:55:32.428Z,43.40
2022-10-16T11:58:04.527Z,43.30
2022-10-16T12:00:39.675Z,42.84
2022-10-16T12:03:17.614Z,43.88
2022-10-16T12:06:00.782Z,44.24
2022-10-16T12:08:29.400Z,44.51
2022-10-16T12:11:09.884Z,43.39
2022-10-16T12:13:39.800Z,43.66
2022-10-16T12:16:24.340Z,44.27
2022-10-16T12:19:12.683Z,45.00
2022-10-16T12:21:40.416Z,43.23
2022-10-16T12:24:08.422Z,43.14
2022-10-16T12:26:40.446Z,43.30
2022-10-16T12:29:16.463Z,43.07
2022-10-16T12:31:57.448Z,43.69
2022-10-16T12:34:30.162Z,44.29
2022-10-16T12:37:09.460Z,45.77
2022-10-16T12:39:39.007Z,45.89
2022-10-16T12:42:21.047Z,46.75
2022-10-16T12:44:48.864Z,47.04
2022-10-16T12:47:23.276Z,46.99
2022-10-16T12:53:39.789Z,46.27
2022-10-16T12:56:27.122Z,46.52
2022-10-16T12:59:06.989Z,47.30
2022-10-16T13:01:43.775Z,48.05
2022-10-16T13:04:38.806Z,47.04
2022-10-16T13:07:21.493Z,46.65
2022-10-16T13:10:03.669Z,46.66
2022-10-16T13:12:56.632Z,46.13
2022-10-16T13:15:41.961Z,47.08
2022-10-16T13:18:17.733Z,46.16
2022-10-16T13:21:11.022Z,47.88
2022-10-16T13:23:50.108Z,47.17
2022-10-16T13:26:30.938Z,47.16
2022-10-16T13:29:01.460Z,46.50
2022-10-16T13:31:32.194Z,46.47
2022-10-16T13:34:01.788Z,45.80
2022-10-16T13:36:31.157Z,46.86
2022-10-16T13:39:15.183Z,47.44
2022-10-16T13:41:44.168Z,48.81
2022-10-16T13:44:17.505Z,47.02
2022-10-16T13:46:45.085Z,44.33
2022-10-16T13:49:17.579Z,44.24
2022-10-16T13:51:56.392Z,43.53
2022-10-16T13:54:24.941Z,41.81
2022-10-16T13:57:03.120Z,41.24
2022-10-16T13:59:36.103Z,42.19
2022-10-16T14:02:17.331Z,42.54
2022-10-16T14:04:45.109Z,44.33
2022-10-16T14:07:21.282Z,44.68
2022-10-16T14:09:52.009Z,44.63
2022-10-16T14:12:24.057Z,45.16
2022-10-16T14:14:56.544Z,45.20
2022-10-16T14:17:27.510Z,45.71
2022-10-16T14:19:59.674Z,46.17
2022-10-16T14:22:34.892Z,46.31
2022-10-16T14:25:02.951Z,46.05
2022-10-16T14:27:33.890Z,46.00
2022-10-16T14:30:15.971Z,42.38
2022-10-16T14:32:54.442Z,43.99
2022-10-16T14:35:31.816Z,45.89
2022-10-16T14:38:00.859Z,46.69
2022-10-16T14:40:31.071Z,46.74
2022-10-16T14:43:00.955Z,47.27
2022-10-16T14:45:31.525Z,47.36
2022-10-16T14:48:01.009Z,47.64
2022-10-16T14:50:28.695Z,47.58
2022-10-16T14:52:56.647Z,48.29
2022-10-16T14:57:59.857Z,45.16
2022-10-16T15:00:29.863Z,47.28
2022-10-16T15:02:57.488Z,48.68
2022-10-16T15:05:27.773Z,48.75
2022-10-16T15:07:56.984Z,49.33
2022-10-16T15:10:26.327Z,49.94
2022-10-16T15:12:54.426Z,50.47
2022-10-16T15:15:35.087Z,50.80
2022-10-16T15:18:03.598Z,50.62
2022-10-16T15:20:34.645Z,51.03
2022-10-16T15:23:03.469Z,51.20
2022-10-16T15:25:38.571Z,51.37
2022-10-16T15:28:06.453Z,51.53
2022-10-16T15:30:36.039Z,51.66
2022-10-16T15:33:04.900Z,51.73
2022-10-16T15:35:32.560Z,52.06
2022-10-16T15:38:00.374Z,52.09
2022-10-16T15:40:28.042Z,52.35
2022-10-16T15:42:55.731Z,52.54
2022-10-16T15:45:23.432Z,52.87
2022-10-16T15:47:52.681Z,52.71
2022-10-16T15:50:20.274Z,53.45
2022-10-16T15:52:48.213Z,53.36
2022-10-16T15:55:16.692Z,53.31
2022-10-16T15:57:44.244Z,53.57
2022-10-16T16:00:14.428Z,53.87
2022-10-16T16:02:42.021Z,54.38
2022-10-16T16:05:12.396Z,54.61
2022-10-16T16:07:41.590Z,54.30
2022-10-16T16:10:11.896Z,54.76
2022-10-16T16:12:40.475Z,54.75
2022-10-16T16:15:10.000Z,54.72
2022-10-16T16:17:38.432Z,54.94
2022-10-16T16:20:07.166Z,55.47
2022-10-16T16:22:36.054Z,55.63
2022-10-16T16:25:03.650Z,55.81
2022-10-16T16:27:34.491Z,55.99
2022-10-16T16:30:04.373Z,55.67
2022-10-16T16:32:32.035Z,55.67
2022-10-16T16:34:59.672Z,56.14
2022-10-16T16:37:27.473Z,56.54
2022-10-16T16:39:59.262Z,56.53
2022-10-16T16:42:27.345Z,56.55
2022-10-16T16:44:55.517Z,56.85
2022-10-16T16:47:23.493Z,57.07
2022-10-16T16:49:51.862Z,57.28
2022-10-16T16:52:20.071Z,57.16
2022-10-16T16:54:52.697Z,57.39
2022-10-16T16:57:22.558Z,57.61
2022-10-16T16:59:52.688Z,57.64
2022-10-16T17:02:20.430Z,57.92
2022-10-16T17:04:48.090Z,57.95
2022-10-16T17:07:16.850Z,58.49
2022-10-16T17:09:46.387Z,58.51
2022-10-16T17:12:13.937Z,58.36
2022-10-16T17:14:42.873Z,58.45
2022-10-16T17:17:10.534Z,57.48
2022-10-16T17:19:38.087Z,57.18
2022-10-16T17:22:05.925Z,56.88
2022-10-16T17:24:33.497Z,56.32
2022-10-16T17:27:01.085Z,56.05
2022-10-16T17:29:28.652Z,56.34
2022-10-16T17:31:59.244Z,56.50
2022-10-16T17:34:27.277Z,56.62
2022-10-16T17:36:54.941Z,57.37
2022-10-16T17:39:23.222Z,57.20
2022-10-16T17:41:50.934Z,57.93
2022-10-16T17:44:22.437Z,58.39
2022-10-16T17:46:51.776Z,58.58
2022-10-16T17:49:21.320Z,58.71
2022-10-16T17:51:51.947Z,59.03
2022-10-16T17:54:19.588Z,58.99
2022-10-16T17:56:49.930Z,58.81
2022-10-16T17:59:17.590Z,59.23
2022-10-16T18:01:46.256Z,59.27
2022-10-16T18:04:17.401Z,59.77
2022-10-16T18:06:47.667Z,59.85
2022-10-16T18:09:18.066Z,60.12
2022-10-16T18:11:46.301Z,60.40
2022-10-16T18:14:16.140Z,60.72
2022-10-16T18:16:44.601Z,60.83
2022-10-16T18:19:13.536Z,60.89
2022-10-16T18:21:41.335Z,61.09
2022-10-16T18:24:10.494Z,61.25
2022-10-16T18:26:38.703Z,61.18
2022-10-16T18:29:06.643Z,60.61
2022-10-16T18:31:37.782Z,60.68
2022-10-16T18:34:08.257Z,60.92
2022-10-16T18:36:36.584Z,60.93
2022-10-16T18:39:09.244Z,61.15
2022-10-16T18:41:39.335Z,60.82
2022-10-16T18:44:07.892Z,61.27
2022-10-16T18:46:35.494Z,61.37
2022-10-16T18:49:04.677Z,61.49
2022-10-16T18:51:33.848Z,61.68
2022-10-16T18:54:03.831Z,62.04
2022-10-16T18:56:32.755Z,62.33
2022-10-16T18:59:04.575Z,62.54
2022-10-16T19:01:34.660Z,62.24
2022-10-16T19:04:04.248Z,62.14
2022-10-16T19:06:35.956Z,61.94
2022-10-16T19:09:04.693Z,61.80
2022-10-16T19:11:34.131Z,62.15
2022-10-16T19:14:05.573Z,62.56
2022-10-16T19:16:34.777Z,63.03
2022-10-16T19:19:05.357Z,63.29
2022-10-16T19:21:36.288Z,63.50
2022-10-16T19:24:04.734Z,63.55
2022-10-16T19:26:35.751Z,63.60
2022-10-16T19:29:08.109Z,63.47
2022-10-16T19:31:35.913Z,63.46
2022-10-16T19:34:06.364Z,63.56
2022-10-16T19:36:35.761Z,63.52
2022-10-16T19:39:05.510Z,63.76
2022-10-16T19:41:33.273Z,63.25
2022-10-16T19:44:02.930Z,63.20
2022-10-16T19:46:33.615Z,63.17
2022-10-16T19:49:03.342Z,63.20
2022-10-16T19:51:31.483Z,63.20
2022-10-16T19:54:00.953Z,63.24
2022-10-16T19:56:31.406Z,63.01
2022-10-16T19:59:00.466Z,63.13
2022-10-16T20:01:29.968Z,63.37
2022-10-16T20:03:59.676Z,63.23
2022-10-16T20:06:27.947Z,63.06
2022-10-16T20:08:58.058Z,63.39
2022-10-16T20:11:27.651Z,62.78
2022-10-16T20:13:55.289Z,62.77
2022-10-16T20:16:22.995Z,62.86
2022-10-16T20:18:52.251Z,63.61
2022-10-16T20:21:23.832Z,63.84
2022-10-16T20:23:51.947Z,64.00
2022-10-16T20:26:22.165Z,64.11
2022-10-16T20:28:49.809Z,64.38
2022-10-16T20:31:22.476Z,64.80
2022-10-16T20:33:50.248Z,64.85
2022-10-16T20:36:18.623Z,64.88
2022-10-16T20:38:47.964Z,64.91
2022-10-16T20:41:16.326Z,64.47
2022-10-16T20:43:45.935Z,64.54
2022-10-16T20:46:16.056Z,64.86
2022-10-16T20:48:46.432Z,65.17
2022-10-16T20:51:16.285Z,65.08
2022-10-16T20:53:45.918Z,64.88
2022-10-16T20:56:17.387Z,64.31
2022-10-16T20:58:45.386Z,64.32
2022-10-16T21:01:15.280Z,63.92
2022-10-16T21:03:43.878Z,64.72
2022-10-16T21:06:12.065Z,64.90
2022-10-16T21:08:41.659Z,65.52
2022-10-16T21:11:15.282Z,66.06
2022-10-16T21:13:43.132Z,66.64
2022-10-16T21:16:12.392Z,66.85
2022-10-16T21:18:44.175Z,67.43
2022-10-16T21:21:19.694Z,67.82
2022-10-16T21:23:47.532Z,68.08
2022-10-16T21:26:18.136Z,68.22
2022-10-16T21:28:46.149Z,68.88
2022-10-16T21:31:19.220Z,68.48
2022-10-16T21:33:47.160Z,68.46
2022-10-16T21:36:15.945Z,68.55
2022-10-16T21:38:43.942Z,68.54
2022-10-16T21:41:20.659Z,68.61
2022-10-16T21:43:48.606Z,68.98
2022-10-16T21:46:17.231Z,68.38
2022-10-16T21:48:44.871Z,68.97
2022-10-16T21:51:13.017Z,69.03
2022-10-16T21:53:41.320Z,68.97
2022-10-16T21:56:14.462Z,68.75
2022-10-16T21:58:44.212Z,68.63
2022-10-16T22:01:14.505Z,68.52
2022-10-16T22:03:42.471Z,68.58
2022-10-16T22:06:11.711Z,68.42
2022-10-16T22:08:40.230Z,68.48
2022-10-16T22:11:10.137Z,68.24
2022-10-16T22:13:38.530Z,68.25
2022-10-16T22:16:08.696Z,67.71
2022-10-16T22:18:37.687Z,67.74
2022-10-16T22:21:07.061Z,67.72
2022-10-16T22:23:36.010Z,67.48
2022-10-16T22:26:07.299Z,66.50
2022-10-16T22:28:35.067Z,65.86
2022-10-16T22:31:03.802Z,65.60
2022-10-16T22:36:08.411Z,66.75
2022-10-16T22:38:37.324Z,66.84
2022-10-16T22:41:06.596Z,66.35
2022-10-16T22:43:36.734Z,65.66
2022-10-16T22:46:04.997Z,66.16
2022-10-16T22:48:34.152Z,66.22
2022-10-16T22:51:02.103Z,65.95
2022-10-16T22:53:30.048Z,66.63
2022-10-16T22:55:57.689Z,67.05
2022-10-16T22:58:25.410Z,67.43
2022-10-16T23:00:53.169Z,67.34
2022-10-16T23:03:20.956Z,67.43
2022-10-16T23:05:50.057Z,67.91
2022-10-16T23:08:17.972Z,67.90
2022-10-16T23:10:48.278Z,68.18
2022-10-16T23:13:16.110Z,68.28
2022-10-16T23:15:45.136Z,68.31
2022-10-16T23:18:13.374Z,67.76
2022-10-16T23:20:41.536Z,68.21
2022-10-16T23:23:10.859Z,68.48
2022-10-16T23:25:38.833Z,68.59
2022-10-16T23:28:06.533Z,68.75
2022-10-16T23:30:34.149Z,69.02
2022-10-16T23:33:01.709Z,69.01
2022-10-16T23:35:29.354Z,69.22
2022-10-16T23:37:58.136Z,69.29
2022-10-16T23:40:27.203Z,69.26
2022-10-16T23:42:54.895Z,69.37
2022-10-16T23:45:22.605Z,69.92
2022-10-16T23:47:50.160Z,70.31
2022-10-16T23:50:17.907Z,69.99
2022-10-16T23:52:45.515Z,69.87
2022-10-16T23:55:13.135Z,69.71
2022-10-16T23:57:42.079Z,70.15
